createdAt,value
2022-12-23T00:00:39.815Z,15.03
2022-12-23T00:03:07.050Z,19.87
2022-12-23T00:05:40.567Z,17.50
2022-12-23T00:08:08.677Z,20.33
2022-12-23T00:10:38.609Z,15.73
2022-12-23T00:13:24.560Z,16.37
2022-12-23T00:15:51.654Z,20.13
2022-12-23T00:18:18.749Z,19.73
2022-12-23T00:20:45.842Z,15.03
2022-12-23T00:23:12.941Z,13.77
2022-12-23T00:25:43.844Z,14.83
2022-12-23T00:28:11.794Z,15.43
2022-12-23T00:30:45.408Z,19.30
2022-12-23T00:33:12.499Z,14.50
2022-12-23T00:35:39.691Z,12.93
2022-12-23T00:38:06.839Z,17.40
2022-12-23T00:40:52.641Z,13.63
2022-12-23T00:43:19.781Z,20.57
2022-12-23T00:45:47.833Z,14.97
2022-12-23T00:48:33.689Z,18.40
2022-12-23T00:51:00.809Z,16.37
2022-12-23T00:53:27.932Z,20.37
2022-12-23T00:55:55.037Z,19.47
2022-12-23T00:58:22.474Z,15.53
2022-12-23T01:01:08.340Z,19.23
2022-12-23T01:03:54.447Z,21.83
2022-12-23T01:06:21.614Z,16.23
2022-12-23T01:08:48.757Z,18.10
2022-12-23T01:11:15.865Z,14.93
2022-12-23T01:13:43.015Z,16.10
2022-12-23T01:16:17.120Z,19.60
2022-12-23T01:18:44.615Z,21.23
2022-12-23T01:21:11.790Z,17.47
2022-12-23T01:23:38.947Z,18.73
2022-12-23T01:26:06.755Z,15.90
2022-12-23T01:28:34.527Z,19.23
2022-12-23T01:31:02.666Z,16.03
2022-12-23T01:33:29.973Z,21.90
2022-12-23T01:36:03.723Z,20.87
2022-12-23T01:38:31.013Z,22.40
2022-12-23T01:40:58.103Z,17.73
2022-12-23T01:43:44.438Z,17.63
2022-12-23T01:46:11.620Z,11.83
2022-12-23T01:48:39.443Z,18.97
2022-12-23T01:51:08.985Z,14.70
2022-12-23T01:53:37.911Z,13.83
2022-12-23T01:56:10.296Z,14.17
2022-12-23T01:58:38.592Z,20.40
2022-12-23T02:01:25.364Z,17.97
2022-12-23T02:03:54.445Z,20.00
2022-12-23T02:06:54.329Z,11.63
2022-12-23T02:09:23.750Z,17.37
2022-12-23T02:12:08.973Z,13.27
2022-12-23T02:15:12.890Z,14.10
2022-12-23T02:17:45.775Z,14.77
2022-12-23T02:20:31.637Z,16.50
2022-12-23T02:23:04.852Z,19.97
2022-12-23T02:25:37.739Z,21.03
2022-12-23T02:28:04.805Z,22.00
2022-12-23T02:30:38.096Z,18.87
2022-12-23T02:33:14.712Z,26.20
2022-12-23T02:35:45.698Z,23.53
2022-12-23T02:38:15.451Z,26.77
2022-12-23T02:41:05.983Z,24.33
2022-12-23T02:43:39.244Z,21.17
2022-12-23T02:46:13.137Z,22.90
2022-12-23T02:48:57.414Z,24.00
2022-12-23T02:51:27.728Z,30.73
2022-12-23T02:53:56.963Z,25.67
2022-12-23T02:56:25.905Z,30.03
2022-12-23T02:59:17.079Z,21.97
2022-12-23T03:01:45.686Z,25.23
2022-12-23T03:04:12.867Z,21.50
2022-12-23T03:06:44.049Z,18.20
2022-12-23T03:09:33.033Z,10.57
2022-12-23T03:12:12.820Z,8.07
2022-12-23T03:15:03.012Z,6.00
2022-12-23T03:17:56.377Z,6.53
2022-12-23T03:20:26.759Z,6.60
2022-12-23T03:23:02.336Z,5.87
2022-12-23T03:25:46.695Z,7.93
2022-12-23T03:28:32.136Z,4.67
2022-12-23T03:31:00.134Z,6.23
2022-12-23T03:33:37.878Z,6.37
2022-12-23T03:36:11.297Z,5.67
2022-12-23T03:38:40.115Z,5.43
2022-12-23T03:41:10.253Z,6.93
2022-12-23T03:43:43.502Z,8.33
2022-12-23T03:46:18.474Z,6.33
2022-12-23T03:48:49.544Z,7.60
2022-12-23T03:51:19.117Z,6.47
2022-12-23T03:53:48.769Z,5.13
2022-12-23T03:56:19.761Z,7.40
2022-12-23T03:58:54.523Z,10.13
2022-12-23T04:01:40.166Z,6.90
2022-12-23T04:04:07.532Z,7.33
2022-12-23T04:06:39.773Z,8.40
2022-12-23T04:09:08.028Z,8.30
2022-12-23T04:11:36.001Z,9.30
2022-12-23T04:14:03.296Z,8.03
2022-12-23T04:16:30.632Z,7.80
2022-12-23T04:18:57.817Z,8.07
2022-12-23T04:21:24.912Z,7.33
2022-12-23T04:23:52.041Z,7.43
2022-12-23T04:26:19.125Z,8.83
2022-12-23T04:28:46.237Z,9.83
2022-12-23T04:31:13.383Z,8.80
2022-12-23T04:33:40.578Z,9.43
2022-12-23T04:36:07.752Z,10.90
2022-12-23T04:38:34.916Z,11.53
2022-12-23T04:41:02.039Z,8.67
2022-12-23T04:43:29.168Z,12.57
2022-12-23T04:45:56.306Z,14.20
2022-12-23T04:48:23.479Z,14.17
2022-12-23T04:50:50.578Z,10.13
2022-12-23T04:53:17.697Z,9.97
2022-12-23T04:55:44.789Z,10.43
2022-12-23T04:58:11.885Z,12.13
2022-12-23T05:00:39.989Z,9.83
2022-12-23T05:03:07.422Z,8.30
2022-12-23T05:05:34.653Z,8.90
2022-12-23T05:08:06.003Z,8.37
2022-12-23T05:10:33.367Z,9.00
2022-12-23T05:13:00.495Z,8.93
2022-12-23T05:15:27.617Z,9.73
2022-12-23T05:17:54.775Z,10.77
2022-12-23T05:20:21.899Z,12.50
2022-12-23T05:22:49.012Z,12.67
2022-12-23T05:25:16.208Z,11.20
2022-12-23T05:27:43.361Z,12.67
2022-12-23T05:30:10.791Z,10.80
2022-12-23T05:32:39.256Z,13.13
2022-12-23T05:35:06.913Z,8.77
2022-12-23T05:37:34.048Z,9.93
2022-12-23T05:40:01.112Z,11.23
2022-12-23T05:42:28.569Z,10.83
2022-12-23T05:44:55.696Z,13.33
2022-12-23T05:47:22.799Z,14.77
2022-12-23T05:49:50.636Z,12.33
2022-12-23T05:52:17.773Z,9.87
2022-12-23T05:54:44.908Z,8.77
2022-12-23T05:57:12.058Z,12.00
2022-12-23T05:59:39.175Z,8.40
2022-12-23T06:02:06.464Z,9.13
2022-12-23T06:04:33.700Z,7.67
2022-12-23T06:07:00.795Z,9.00
2022-12-23T06:09:27.949Z,8.03
2022-12-23T06:11:55.050Z,7.53
2022-12-23T06:14:28.416Z,6.90
2022-12-23T06:16:56.141Z,8.13
2022-12-23T06:19:23.308Z,6.90
2022-12-23T06:21:50.423Z,7.83
2022-12-23T06:24:17.489Z,7.27
2022-12-23T06:26:44.608Z,11.13
2022-12-23T06:29:11.771Z,9.07
2022-12-23T06:31:38.963Z,6.17
2022-12-23T06:34:06.178Z,8.47
2022-12-23T06:36:33.309Z,6.63
2022-12-23T06:39:00.391Z,6.27
2022-12-23T06:41:27.553Z,3.23
2022-12-23T06:43:54.831Z,4.43
2022-12-23T06:46:22.139Z,3.10
2022-12-23T06:48:49.258Z,4.77
2022-12-23T06:51:16.354Z,4.37
2022-12-23T06:53:43.463Z,3.50
2022-12-23T06:56:10.579Z,3.70
2022-12-23T06:58:37.672Z,3.23
2022-12-23T07:01:04.949Z,4.30
2022-12-23T07:03:32.192Z,2.27
2022-12-23T07:05:59.398Z,3.23
2022-12-23T07:08:26.512Z,5.27
2022-12-23T07:11:00.165Z,2.90
2022-12-23T07:13:27.752Z,5.23
2022-12-23T07:15:54.871Z,2.60
2022-12-23T07:18:25.574Z,4.53
2022-12-23T07:20:53.291Z,3.77
2022-12-23T07:23:20.697Z,4.90
2022-12-23T07:29:15.949Z,6.83
2022-12-23T07:31:43.103Z,2.53
2022-12-23T07:34:10.456Z,1.87
2022-12-23T07:36:37.587Z,2.37
2022-12-23T07:39:04.784Z,5.20
2022-12-23T07:41:32.016Z,3.70
2022-12-23T07:43:59.177Z,4.53
2022-12-23T07:46:26.416Z,2.40
2022-12-23T07:48:53.567Z,6.90
2022-12-23T07:51:20.711Z,3.20
2022-12-23T07:53:51.353Z,5.43
2022-12-23T07:56:18.894Z,5.17
2022-12-23T07:58:52.891Z,3.57
2022-12-23T08:01:20.582Z,5.00
2022-12-23T08:03:47.796Z,4.90
2022-12-23T08:06:15.810Z,2.70
2022-12-23T08:08:43.547Z,4.73
2022-12-23T08:11:11.353Z,3.17
2022-12-23T08:13:40.162Z,3.70
2022-12-23T08:16:08.376Z,3.57
2022-12-23T08:18:36.702Z,4.03
2022-12-23T08:21:14.821Z,7.43
2022-12-23T08:23:43.465Z,9.53
2022-12-23T08:26:14.732Z,6.93
2022-12-23T08:28:42.575Z,6.80
2022-12-23T08:31:09.744Z,3.63
2022-12-23T08:33:38.286Z,5.50
2022-12-23T08:36:06.882Z,3.07
2022-12-23T08:38:34.571Z,9.60
2022-12-23T08:41:01.715Z,7.60
2022-12-23T08:43:44.152Z,9.03
2022-12-23T08:46:11.436Z,8.90
2022-12-23T08:48:42.503Z,3.60
2022-12-23T08:51:14.262Z,7.53
2022-12-23T08:53:41.698Z,5.63
2022-12-23T08:56:13.505Z,8.27
2022-12-23T08:58:41.956Z,10.00
2022-12-23T09:01:09.951Z,9.47
2022-12-23T09:03:37.655Z,11.03
2022-12-23T09:06:09.606Z,29.87
2022-12-23T09:08:37.124Z,33.03
2022-12-23T09:11:04.528Z,37.47
2022-12-23T09:13:35.561Z,44.67
2022-12-23T09:16:02.954Z,21.90
2022-12-23T09:18:30.163Z,10.00
2022-12-23T09:21:16.522Z,10.27
2022-12-23T09:23:43.671Z,8.93
2022-12-23T09:26:11.717Z,11.73
2022-12-23T09:28:40.039Z,15.03
2022-12-23T09:31:11.421Z,11.07
2022-12-23T09:33:38.991Z,12.47
2022-12-23T09:36:06.972Z,15.13
2022-12-23T09:38:34.321Z,13.27
2022-12-23T09:41:06.816Z,14.87
2022-12-23T09:43:33.893Z,9.30
2022-12-23T09:46:07.406Z,9.60
2022-12-23T09:48:43.530Z,7.43
2022-12-23T09:51:11.363Z,6.43
2022-12-23T09:53:55.558Z,7.30
2022-12-23T09:56:28.388Z,6.90
2022-12-23T09:58:55.533Z,8.13
2022-12-23T10:01:29.520Z,7.63
2022-12-23T10:03:56.713Z,6.43
2022-12-23T10:06:26.631Z,6.40
2022-12-23T10:08:55.389Z,8.53
2022-12-23T10:11:38.042Z,11.57
2022-12-23T10:14:20.405Z,15.00
2022-12-23T10:16:52.561Z,13.77
2022-12-23T10:19:29.115Z,13.83
2022-12-23T10:22:00.832Z,14.30
2022-12-23T10:24:30.990Z,18.80
2022-12-23T10:27:06.855Z,17.23
2022-12-23T10:29:34.822Z,17.87
2022-12-23T10:32:20.646Z,19.43
2022-12-23T10:34:58.119Z,15.00
2022-12-23T10:37:27.960Z,7.13
2022-12-23T10:39:57.916Z,8.10
2022-12-23T10:42:31.581Z,8.07
2022-12-23T10:44:58.767Z,6.43
2022-12-23T10:47:46.141Z,8.20
2022-12-23T10:50:19.327Z,7.80
2022-12-23T10:52:48.667Z,5.70
2022-12-23T10:55:20.838Z,5.47
2022-12-23T10:57:48.025Z,8.57
2022-12-23T11:00:19.328Z,6.97
2022-12-23T11:03:13.136Z,7.90
2022-12-23T11:05:41.149Z,5.70
2022-12-23T11:08:09.726Z,4.30
2022-12-23T11:10:36.984Z,5.20
2022-12-23T11:13:04.158Z,4.73
2022-12-23T11:15:31.290Z,6.20
2022-12-23T11:18:01.531Z,6.57
2022-12-23T11:20:28.959Z,5.27
2022-12-23T11:22:56.373Z,5.43
2022-12-23T11:25:27.500Z,8.87
2022-12-23T11:28:03.539Z,4.37
2022-12-23T11:30:31.940Z,6.80
2022-12-23T11:32:59.098Z,5.97
2022-12-23T11:35:31.485Z,6.27
2022-12-23T11:38:00.120Z,12.33
2022-12-23T11:40:29.140Z,15.50
2022-12-23T11:43:01.395Z,15.07
2022-12-23T11:45:30.192Z,18.70
2022-12-23T11:47:57.377Z,13.13
2022-12-23T11:50:29.094Z,19.13
2022-12-23T11:53:01.456Z,13.13
2022-12-23T11:55:29.849Z,11.97
2022-12-23T11:57:57.160Z,11.87
2022-12-23T12:00:27.576Z,9.77
2022-12-23T12:02:56.633Z,10.63
2022-12-23T12:05:28.982Z,9.40
2022-12-23T12:07:59.206Z,8.80
2022-12-23T12:10:27.841Z,8.03
2022-12-23T12:13:03.271Z,8.87
2022-12-23T12:15:44.342Z,9.07
2022-12-23T12:18:17.812Z,8.10
2022-12-23T12:20:46.418Z,7.10
2022-12-23T12:23:15.847Z,10.43
2022-12-23T12:25:44.381Z,11.07
2022-12-23T12:28:14.302Z,14.63
2022-12-23T12:30:46.266Z,16.30
2022-12-23T12:33:19.433Z,13.23
2022-12-23T12:36:00.278Z,16.27
2022-12-23T12:38:36.801Z,11.23
2022-12-23T12:41:28.146Z,7.77
2022-12-23T12:44:04.419Z,9.03
2022-12-23T12:46:34.446Z,8.33
2022-12-23T12:49:10.846Z,6.87
2022-12-23T12:51:40.976Z,8.57
2022-12-23T12:54:20.901Z,12.00
2022-12-23T12:56:52.257Z,16.73
2022-12-23T12:59:21.183Z,22.63
2022-12-23T13:01:57.831Z,11.57
2022-12-23T13:04:40.234Z,13.70
2022-12-23T13:07:25.945Z,10.40
2022-12-23T13:10:11.879Z,10.27
2022-12-23T13:12:48.068Z,11.90
2022-12-23T13:15:15.159Z,34.63
2022-12-23T13:17:48.976Z,21.77
2022-12-23T13:20:34.848Z,9.37
2022-12-23T13:23:41.218Z,12.23
2022-12-23T13:25:57.956Z,11.83
2022-12-23T13:28:39.650Z,12.47
2022-12-23T13:31:09.875Z,10.87
2022-12-23T13:33:45.275Z,10.33
2022-12-23T13:36:27.405Z,11.33
2022-12-23T13:39:13.046Z,13.47
2022-12-23T13:41:42.435Z,13.63
2022-12-23T13:44:10.761Z,14.23
2022-12-23T13:46:37.925Z,14.30
2022-12-23T13:49:23.519Z,16.60
2022-12-23T13:51:55.614Z,15.33
2022-12-23T13:54:28.159Z,17.57
2022-12-23T13:57:08.033Z,14.23
2022-12-23T13:59:39.684Z,15.20
2022-12-23T14:02:26.830Z,20.43
2022-12-23T14:04:56.779Z,21.13
2022-12-23T14:07:24.342Z,42.33
2022-12-23T14:09:55.141Z,21.83
2022-12-23T14:12:33.711Z,22.17
2022-12-23T14:15:13.559Z,17.23
2022-12-23T14:17:52.558Z,29.83
2022-12-23T14:20:43.078Z,31.07
2022-12-23T14:23:25.617Z,38.63
2022-12-23T14:25:57.794Z,28.80
2022-12-23T14:28:33.448Z,26.70
2022-12-23T14:31:00.673Z,16.67
2022-12-23T14:33:29.160Z,17.63
2022-12-23T14:35:56.324Z,30.67
2022-12-23T14:38:24.937Z,37.67
2022-12-23T14:41:12.039Z,30.20
2022-12-23T14:43:45.309Z,20.57
2022-12-23T14:46:31.055Z,35.33
2022-12-23T14:49:29.694Z,27.33
2022-12-23T14:51:51.081Z,34.00
2022-12-23T14:54:37.359Z,36.50
2022-12-23T14:57:08.630Z,33.33
2022-12-23T14:59:45.891Z,25.70
2022-12-23T15:02:34.548Z,25.47
2022-12-23T15:05:02.167Z,20.07
2022-12-23T15:07:37.137Z,24.00
2022-12-23T15:10:04.253Z,28.93
2022-12-23T15:12:35.776Z,23.53
2022-12-23T15:15:05.991Z,28.37
2022-12-23T15:17:34.585Z,24.77
2022-12-23T15:20:11.188Z,32.67
2022-12-23T15:22:38.865Z,25.67
2022-12-23T15:25:06.968Z,27.43
2022-12-23T15:27:36.151Z,28.77
2022-12-23T15:30:03.420Z,29.07
2022-12-23T15:32:30.697Z,23.13
2022-12-23T15:35:01.766Z,24.00
2022-12-23T15:37:29.666Z,20.03
2022-12-23T15:40:04.860Z,27.23
2022-12-23T15:42:38.549Z,30.97
2022-12-23T15:45:26.996Z,30.67
2022-12-23T15:47:54.173Z,35.93
2022-12-23T15:50:21.415Z,44.13
2022-12-23T15:52:50.119Z,36.97
2022-12-23T15:55:30.343Z,28.47
2022-12-23T15:57:57.752Z,37.93
2022-12-23T16:00:27.038Z,19.30
2022-12-23T16:03:01.051Z,20.37
2022-12-23T16:05:34.528Z,25.90
2022-12-23T16:08:28.582Z,13.97
2022-12-23T16:10:59.263Z,12.90
2022-12-23T16:13:26.449Z,10.57
2022-12-23T16:15:54.994Z,6.73
2022-12-23T16:18:22.244Z,6.13
2022-12-23T16:20:53.755Z,5.90
2022-12-23T16:23:21.511Z,6.07
2022-12-23T16:25:50.840Z,5.40
2022-12-23T16:28:28.332Z,5.93
2022-12-23T16:30:56.768Z,6.47
2022-12-23T16:33:36.955Z,4.43
2022-12-23T16:36:33.487Z,4.17
2022-12-23T16:39:09.440Z,4.23
2022-12-23T16:41:36.561Z,5.03
2022-12-23T16:44:04.781Z,5.23
2022-12-23T16:46:38.109Z,4.17
2022-12-23T16:52:27.904Z,4.60
2022-12-23T16:54:55.020Z,4.63
2022-12-23T16:57:22.137Z,2.53
2022-12-23T16:59:50.270Z,3.60
2022-12-23T17:02:20.063Z,3.33
2022-12-23T17:04:47.210Z,6.23
2022-12-23T17:07:14.405Z,20.43
2022-12-23T17:09:41.493Z,21.17
2022-12-23T17:12:09.705Z,13.63
2022-12-23T17:14:36.787Z,9.47
2022-12-23T17:17:12.934Z,4.67
2022-12-23T17:19:40.054Z,6.50
2022-12-23T17:22:07.189Z,4.10
2022-12-23T17:24:34.346Z,2.07
2022-12-23T17:27:01.530Z,1.57
2022-12-23T17:29:28.740Z,2.23
2022-12-23T17:31:55.915Z,4.13
2022-12-23T17:34:24.556Z,11.07
2022-12-23T17:36:51.825Z,5.33
2022-12-23T17:39:20.455Z,6.13
2022-12-23T17:41:47.954Z,11.07
2022-12-23T17:44:16.685Z,8.63
2022-12-23T17:46:44.058Z,9.67
2022-12-23T17:49:11.934Z,5.80
2022-12-23T17:51:39.901Z,9.80
2022-12-23T17:54:07.033Z,3.63
2022-12-23T17:56:34.252Z,6.67
2022-12-23T17:59:01.378Z,4.43
2022-12-23T18:01:29.995Z,1.60
2022-12-23T18:03:58.026Z,3.23
2022-12-23T18:06:25.903Z,2.37
2022-12-23T18:08:53.192Z,1.67
2022-12-23T18:11:33.195Z,3.50
2022-12-23T18:14:00.602Z,4.90
2022-12-23T18:16:27.774Z,4.53
2022-12-23T18:18:54.907Z,12.50
2022-12-23T18:21:24.332Z,6.67
2022-12-23T18:23:52.614Z,6.57
2022-12-23T18:26:19.714Z,6.40
2022-12-23T18:28:46.890Z,4.00
2022-12-23T18:31:19.108Z,1.70
2022-12-23T18:33:46.883Z,3.73
2022-12-23T18:36:24.589Z,3.40
2022-12-23T18:38:52.640Z,3.00
2022-12-23T18:41:20.177Z,4.00
2022-12-23T18:43:47.373Z,2.60
2022-12-23T18:46:14.564Z,4.00
2022-12-23T18:48:41.777Z,2.83
2022-12-23T18:51:13.564Z,4.17
2022-12-23T18:53:41.639Z,1.17
2022-12-23T18:56:12.687Z,1.93
2022-12-23T18:58:39.817Z,1.17
2022-12-23T19:01:07.066Z,2.80
2022-12-23T19:03:34.236Z,3.33
2022-12-23T19:06:06.649Z,2.77
2022-12-23T19:08:34.987Z,3.40
2022-12-23T19:11:02.472Z,1.77
2022-12-23T19:13:29.650Z,3.47
2022-12-23T19:15:56.827Z,2.93
2022-12-23T19:18:24.026Z,4.40
2022-12-23T19:20:51.526Z,3.70
2022-12-23T19:23:18.679Z,4.80
2022-12-23T19:25:54.487Z,6.70
2022-12-23T19:28:22.828Z,5.10
2022-12-23T19:30:50.119Z,3.93
2022-12-23T19:33:17.691Z,5.30
2022-12-23T19:35:45.042Z,5.83
2022-12-23T19:38:12.465Z,6.37
2022-12-23T19:40:40.009Z,8.03
2022-12-23T19:43:07.191Z,6.93
2022-12-23T19:45:34.482Z,6.53
2022-12-23T19:48:01.616Z,5.13
2022-12-23T19:50:28.748Z,7.20
2022-12-23T19:52:56.581Z,7.47
2022-12-23T19:55:23.961Z,5.97
2022-12-23T19:57:52.225Z,4.53
2022-12-23T20:00:19.494Z,4.67
2022-12-23T20:02:46.868Z,5.93
2022-12-23T20:05:14.078Z,5.40
2022-12-23T20:07:41.236Z,7.03
2022-12-23T20:10:08.652Z,3.70
2022-12-23T20:12:35.786Z,5.73
2022-12-23T20:15:02.871Z,4.77
2022-12-23T20:17:30.026Z,3.60
2022-12-23T20:19:57.364Z,6.77
2022-12-23T20:22:24.525Z,5.40
2022-12-23T20:24:51.649Z,6.60
2022-12-23T20:27:24.190Z,6.63
2022-12-23T20:29:53.249Z,7.10
2022-12-23T20:32:20.346Z,9.20
2022-12-23T20:34:49.028Z,8.77
2022-12-23T20:37:16.228Z,7.33
2022-12-23T20:39:43.334Z,4.73
2022-12-23T20:42:10.491Z,7.17
2022-12-23T20:44:37.959Z,8.93
2022-12-23T20:47:06.342Z,7.03
2022-12-23T20:49:33.682Z,8.50
2022-12-23T20:52:00.892Z,10.80
2022-12-23T20:54:33.120Z,11.80
2022-12-23T20:57:01.633Z,11.23
2022-12-23T20:59:28.849Z,6.23
2022-12-23T21:01:56.484Z,9.77
2022-12-23T21:04:23.692Z,9.97
2022-12-23T21:06:50.900Z,8.27
2022-12-23T21:09:18.360Z,9.40
2022-12-23T21:11:46.511Z,10.00
2022-12-23T21:14:15.391Z,8.40
2022-12-23T21:16:43.140Z,9.30
2022-12-23T21:19:14.785Z,7.33
2022-12-23T21:21:41.896Z,5.63
2022-12-23T21:24:10.198Z,10.10
2022-12-23T21:26:37.343Z,6.27
2022-12-23T21:29:05.651Z,10.03
2022-12-23T21:31:33.739Z,8.57
2022-12-23T21:34:02.080Z,7.97
2022-12-23T21:36:31.184Z,11.77
2022-12-23T21:38:58.515Z,10.87
2022-12-23T21:41:29.851Z,14.40
2022-12-23T21:43:57.415Z,11.50
2022-12-23T21:46:24.851Z,14.23
2022-12-23T21:48:52.332Z,12.73
2022-12-23T21:51:24.283Z,12.43
2022-12-23T21:53:52.412Z,12.53
2022-12-23T21:56:21.036Z,16.40
2022-12-23T21:58:48.143Z,16.93
2022-12-23T22:01:17.132Z,16.97
2022-12-23T22:03:45.025Z,11.97
2022-12-23T22:06:15.283Z,15.80
2022-12-23T22:08:42.802Z,19.00
2022-12-23T22:11:14.213Z,16.20
2022-12-23T22:13:42.133Z,18.13
2022-12-23T22:16:13.433Z,17.97
2022-12-23T22:18:40.682Z,16.50
2022-12-23T22:21:09.096Z,14.63
2022-12-23T22:23:36.797Z,18.03
2022-12-23T22:26:04.119Z,11.67
2022-12-23T22:28:32.273Z,17.23
2022-12-23T22:31:07.214Z,14.70
2022-12-23T22:33:34.546Z,13.73
2022-12-23T22:36:01.873Z,14.40
2022-12-23T22:38:29.017Z,14.27
2022-12-23T22:40:56.129Z,13.50
2022-12-23T22:43:23.262Z,14.03
2022-12-23T22:45:57.509Z,17.13
2022-12-23T22:48:25.409Z,16.43
2022-12-23T22:50:53.921Z,16.97
2022-12-23T22:53:24.903Z,12.63
2022-12-23T22:56:00.552Z,13.07
2022-12-23T22:58:28.045Z,13.07
2022-12-23T23:00:55.277Z,17.37
2022-12-23T23:03:22.591Z,15.07
2022-12-23T23:05:58.425Z,12.43
2022-12-23T23:08:25.720Z,14.97
2022-12-23T23:10:52.797Z,11.63
2022-12-23T23:13:19.902Z,14.37
2022-12-23T23:15:49.929Z,13.07
2022-12-23T23:18:17.126Z,14.23
2022-12-23T23:20:44.256Z,13.33
2022-12-23T23:23:11.374Z,19.27
2022-12-23T23:25:38.532Z,14.77
2022-12-23T23:28:05.787Z,18.93
2022-12-23T23:30:32.959Z,16.10
2022-12-23T23:33:00.198Z,13.13
2022-12-23T23:35:27.468Z,10.90
2022-12-23T23:37:54.599Z,15.73
2022-12-23T23:40:21.772Z,15.53
2022-12-23T23:42:48.903Z,16.70
2022-12-23T23:45:16.129Z,12.57
2022-12-23T23:47:43.256Z,16.37
2022-12-23T23:50:10.536Z,13.60
2022-12-23T23:52:37.620Z,15.40
2022-12-23T23:55:04.846Z,14.30
2022-12-23T23:57:32.293Z,19.33
2022-12-23T23:59:59.418Z,15.97
